Pintada, New Mexico
Current Conditions -  °F | °C
As of 12:33 AM on Wednesday 22 Oct 2014 (Local Time) from KCQC Reporting Station
Clear Clear  
Wind Chill: 41°   Ceiling: Unl
Heat Index: 46°   Visibility: 9mi
Dew Point: 45°   Wind: 9mph
Humidity: 96%   Direction: 210°SSW
Pressure: 30.17"   Gusts: NA
Location:  34.8581°N, 104.704°W
Report Text: KCQC 220633Z AUTO 21008KT 9SM CLR 08/07 A3017 RMK AO2 T00780072
Loading
Personal Weather Stations






























Interactive Weather Map
Tropical Storm Tracking
New forecast layout! Learn more

10-Day Weather Forecast

Advertisements
Track Severe Weather on mobile